Time;durP1;ratioP1;P1;durP2;ratioP2;P2;SDS_P1;SDS_P2;PMS_P1;PMS_P2;Temp;Humidity;BMP_temperature;BMP_pressure;BME280_temperature;BME280_humidity;BME280_pressure;Samples;Min_cycle;Max_cycle;Signal;HPM_P1;HPM_P2
2020/12/26 00:00:48;;;;;;;28.43;25.40;;;2.10;99.90;;;;;;5122588;27;20460;-75
2020/12/26 00:03:15;;;;;;;29.23;26.30;;;2.10;99.90;;;;;;5126084;27;20448;-77
2020/12/26 00:05:41;;;;;;;26.90;24.40;;;2.10;99.90;;;;;;5126425;27;20464;-74
2020/12/26 00:08:08;;;;;;;33.53;27.13;;;2.10;99.90;;;;;;5125579;27;20460;-75
2020/12/26 00:10:34;;;;;;;33.60;27.20;;;2.10;99.90;;;;;;5127345;27;20557;-76
2020/12/26 00:13:00;;;;;;;33.70;27.33;;;2.10;99.90;;;;;;5126249;27;20456;-75
2020/12/26 00:15:28;;;;;;;37.40;27.63;;;2.00;99.90;;;;;;5124221;27;20826;-76
2020/12/26 00:17:55;;;;;;;29.80;26.90;;;2.10;99.90;;;;;;5125799;27;20460;-75
2020/12/26 00:20:22;;;;;;;30.90;27.97;;;2.10;99.90;;;;;;5127659;27;20533;-75
2020/12/26 00:22:49;;;;;;;29.70;27.00;;;2.00;99.90;;;;;;5124538;27;20468;-74
2020/12/26 00:25:15;;;;;;;30.00;27.00;;;2.00;99.90;;;;;;5122610;27;20464;-78
2020/12/26 00:27:42;;;;;;;33.23;29.60;;;2.00;99.90;;;;;;5126688;27;20494;-74
2020/12/26 00:30:11;;;;;;;31.33;27.90;;;2.10;99.90;;;;;;5125330;27;20520;-75
2020/12/26 00:32:38;;;;;;;32.73;29.23;;;2.10;99.90;;;;;;5124654;27;20549;-76
2020/12/26 00:35:04;;;;;;;31.27;27.50;;;2.10;99.90;;;;;;5121051;27;20475;-76
2020/12/26 00:37:31;;;;;;;32.83;29.57;;;2.10;99.90;;;;;;5124588;27;21051;-74
2020/12/26 00:39:57;;;;;;;30.80;27.80;;;2.10;99.90;;;;;;5121907;27;20480;-75
2020/12/26 00:42:23;;;;;;;34.43;30.83;;;2.10;99.90;;;;;;5127650;27;20464;-76
2020/12/26 00:44:50;;;;;;;32.03;28.90;;;2.10;99.90;;;;;;5123425;27;20460;-76
2020/12/26 00:47:16;;;;;;;33.57;30.53;;;2.10;99.90;;;;;;5126078;27;20821;-76
2020/12/26 00:49:43;;;;;;;34.30;29.60;;;2.10;99.90;;;;;;5125115;27;20458;-74
2020/12/26 00:52:09;;;;;;;33.20;29.90;;;2.10;99.90;;;;;;5122842;27;20491;-76
2020/12/26 00:54:36;;;;;;;35.47;29.97;;;2.10;99.90;;;;;;5126074;27;20467;-74
2020/12/26 00:57:02;;;;;;;31.27;28.33;;;2.10;99.90;;;;;;5121182;27;20461;-75
2020/12/26 00:59:29;;;;;;;33.70;28.70;;;2.10;99.90;;;;;;5127413;27;20452;-74
2020/12/26 01:01:56;;;;;;;42.83;30.80;;;2.10;99.90;;;;;;5122229;27;20624;-76
2020/12/26 01:04:23;;;;;;;33.80;30.40;;;2.10;99.90;;;;;;5130813;27;20452;-74
2020/12/26 01:06:55;;;;;;;34.30;30.40;;;2.10;99.90;;;;;;5121913;27;20471;-74
2020/12/26 01:09:23;;;;;;;34.40;31.00;;;2.10;99.90;;;;;;5123924;27;20887;-76
2020/12/26 01:11:50;;;;;;;40.23;30.80;;;2.10;99.90;;;;;;5118922;27;21025;-75
2020/12/26 01:14:16;;;;;;;35.47;31.63;;;2.00;99.90;;;;;;5125606;27;20579;-74
2020/12/26 01:16:43;;;;;;;36.47;31.23;;;2.00;99.90;;;;;;5129727;27;20483;-77
2020/12/26 01:19:11;;;;;;;33.10;29.70;;;2.00;99.90;;;;;;5125374;27;20460;-74
2020/12/26 01:21:37;;;;;;;34.17;30.93;;;1.90;99.90;;;;;;5122202;27;20465;-76
2020/12/26 01:24:04;;;;;;;33.87;30.23;;;1.90;99.90;;;;;;5123034;27;20471;-76
2020/12/26 01:26:31;;;;;;;37.27;33.43;;;1.80;99.90;;;;;;5126482;27;20487;-74
2020/12/26 01:28:57;;;;;;;33.53;30.17;;;1.80;99.90;;;;;;5118331;27;20465;-76
2020/12/26 01:31:24;;;;;;;37.10;33.13;;;1.80;99.90;;;;;;5120288;27;20497;-75
2020/12/26 01:33:51;;;;;;;34.53;30.83;;;1.80;99.90;;;;;;5121141;27;20456;-76
2020/12/26 01:36:17;;;;;;;35.53;31.87;;;1.80;99.90;;;;;;5123397;27;20993;-77
2020/12/26 01:38:44;;;;;;;38.40;30.97;;;1.80;99.90;;;;;;5118913;27;20958;-77
2020/12/26 01:41:14;;;;;;;36.50;31.10;;;1.70;99.90;;;;;;5119449;27;21001;-74
2020/12/26 01:43:53;;;;;;;35.23;29.83;;;1.70;99.90;;;;;;5125647;27;20460;-76
2020/12/26 01:46:20;;;;;;;31.83;28.70;;;1.70;99.90;;;;;;5127777;27;20454;-77
2020/12/26 01:48:47;;;;;;;37.63;31.17;;;1.70;99.90;;;;;;5118935;27;20460;-74
2020/12/26 01:51:13;;;;;;;40.20;33.23;;;1.70;99.90;;;;;;5121371;27;20472;-76
2020/12/26 01:53:40;;;;;;;34.70;30.93;;;1.70;99.90;;;;;;5124424;27;20465;-76
2020/12/26 01:56:06;;;;;;;36.13;32.47;;;1.80;99.90;;;;;;5122580;27;20487;-74
2020/12/26 01:58:35;;;;;;;39.37;32.73;;;1.80;99.90;;;;;;5125953;27;20457;-75
2020/12/26 02:01:02;;;;;;;38.37;34.10;;;1.90;99.90;;;;;;5123850;27;20468;-74
2020/12/26 02:03:29;;;;;;;45.73;32.17;;;2.00;99.90;;;;;;5124558;27;20811;-78
2020/12/26 02:05:55;;;;;;;41.43;33.37;;;1.90;99.90;;;;;;5120819;27;20828;-76
2020/12/26 02:08:22;;;;;;;40.40;31.80;;;2.00;99.90;;;;;;5121988;27;20459;-76
2020/12/26 02:10:49;;;;;;;39.00;34.87;;;2.00;99.90;;;;;;5121810;27;20461;-75
2020/12/26 02:13:15;;;;;;;39.20;34.20;;;2.00;99.90;;;;;;5124383;27;20457;-74
2020/12/26 02:15:42;;;;;;;39.43;34.97;;;2.00;99.90;;;;;;5128700;27;20462;-75
2020/12/26 02:18:09;;;;;;;42.90;35.30;;;2.10;99.90;;;;;;5123719;27;20459;-74
2020/12/26 02:20:35;;;;;;;45.03;34.73;;;2.20;99.90;;;;;;5120820;27;20461;-74
2020/12/26 02:23:04;;;;;;;42.43;34.67;;;2.20;99.90;;;;;;5125663;27;20504;-77
2020/12/26 02:25:31;;;;;;;36.70;32.90;;;2.30;99.90;;;;;;5121710;27;20880;-75
2020/12/26 02:27:57;;;;;;;38.53;32.57;;;2.30;99.90;;;;;;5123343;27;20462;-75
2020/12/26 02:30:23;;;;;;;33.87;30.40;;;2.20;99.90;;;;;;5120948;27;20460;-75
2020/12/26 02:32:50;;;;;;;37.23;33.10;;;2.20;99.90;;;;;;5121406;27;20495;-76
2020/12/26 02:35:16;;;;;;;32.83;29.53;;;2.20;99.90;;;;;;5119933;27;20462;-77
2020/12/26 02:37:43;;;;;;;35.10;31.47;;;2.20;99.90;;;;;;5123734;27;20479;-76
2020/12/26 02:40:09;;;;;;;37.73;33.80;;;2.20;99.90;;;;;;5123075;27;20481;-76
2020/12/26 02:42:37;;;;;;;35.17;31.37;;;2.20;99.90;;;;;;5124170;27;20470;-75
2020/12/26 02:45:03;;;;;;;38.60;30.80;;;2.20;99.90;;;;;;5118325;27;20463;-76
2020/12/26 02:47:30;;;;;;;34.07;29.80;;;2.10;99.90;;;;;;5122323;27;20476;-78
2020/12/26 02:49:57;;;;;;;33.70;30.33;;;2.10;99.90;;;;;;5120275;27;20461;-76
2020/12/26 02:52:23;;;;;;;36.60;27.17;;;2.20;99.90;;;;;;5123337;27;20488;-77
2020/12/26 02:54:49;;;;;;;39.03;32.00;;;2.10;99.90;;;;;;5120785;27;20488;-77
2020/12/26 02:57:16;;;;;;;35.37;31.57;;;2.10;99.90;;;;;;5123051;27;20447;-74
2020/12/26 02:59:43;;;;;;;34.47;30.77;;;2.10;99.90;;;;;;5120029;27;20486;-74
2020/12/26 03:02:10;;;;;;;36.47;32.77;;;2.10;99.90;;;;;;5124405;27;20463;-78
2020/12/26 03:04:36;;;;;;;39.80;31.50;;;2.10;99.90;;;;;;5121627;27;20464;-77
2020/12/26 03:07:03;;;;;;;33.70;29.67;;;2.10;99.90;;;;;;5122471;28;20506;-75
2020/12/26 03:09:29;;;;;;;40.77;29.90;;;2.30;99.90;;;;;;5121164;28;20836;-77
2020/12/26 03:11:55;;;;;;;36.63;30.80;;;2.20;99.90;;;;;;5119178;28;21002;-76
2020/12/26 03:14:22;;;;;;;34.90;31.00;;;2.20;99.90;;;;;;5120681;28;20459;-73
2020/12/26 03:16:49;;;;;;;32.20;28.60;;;2.20;99.90;;;;;;5125633;27;20466;-77
2020/12/26 03:19:16;;;;;;;33.63;30.07;;;2.30;99.90;;;;;;5119703;27;20478;-78
2020/12/26 03:21:42;;;;;;;34.40;31.20;;;2.40;99.90;;;;;;5124558;27;20460;-77
2020/12/26 03:24:09;;;;;;;39.80;29.10;;;2.40;99.90;;;;;;5122375;27;20468;-76
2020/12/26 03:26:35;;;;;;;45.20;29.83;;;2.50;99.90;;;;;;5123496;27;20534;-73
2020/12/26 03:29:02;;;;;;;30.47;27.37;;;2.60;99.90;;;;;;5124855;27;20536;-75
2020/12/26 03:31:29;;;;;;;30.33;27.17;;;2.60;99.90;;;;;;5132845;27;20566;-74
2020/12/26 03:33:56;;;;;;;30.30;27.40;;;2.60;99.90;;;;;;5128454;27;20462;-74
2020/12/26 03:36:22;;;;;;;34.20;30.13;;;2.70;99.90;;;;;;5123356;27;20483;-74
2020/12/26 03:38:49;;;;;;;34.13;30.47;;;2.80;99.90;;;;;;5122689;27;20461;-74
2020/12/26 03:41:16;;;;;;;33.43;29.83;;;2.80;99.90;;;;;;5122820;27;20945;-74
2020/12/26 03:43:42;;;;;;;30.93;27.70;;;2.80;99.90;;;;;;5125559;27;20950;-74
2020/12/26 03:46:08;;;;;;;35.87;31.97;;;2.70;99.90;;;;;;5137324;27;20476;-74
2020/12/26 03:48:35;;;;;;;39.10;31.40;;;2.80;99.90;;;;;;5127993;27;20862;-74
2020/12/26 03:51:03;;;;;;;35.17;30.63;;;2.80;99.90;;;;;;5126197;27;20456;-74
2020/12/26 03:53:29;;;;;;;39.40;30.20;;;2.80;99.90;;;;;;5126225;27;20463;-74
2020/12/26 03:55:56;;;;;;;33.43;29.83;;;2.90;99.90;;;;;;5125510;27;20457;-74
2020/12/26 03:58:22;;;;;;;37.73;28.93;;;2.90;99.90;;;;;;5125240;27;20461;-74
2020/12/26 04:00:49;;;;;;;40.50;32.73;;;2.90;99.90;;;;;;5124925;27;20455;-73
2020/12/26 04:03:15;;;;;;;39.80;31.30;;;2.90;99.90;;;;;;5123934;27;20467;-74
2020/12/26 04:05:42;;;;;;;34.00;30.30;;;2.90;99.90;;;;;;5122295;27;20540;-74
2020/12/26 04:08:09;;;;;;;32.30;29.00;;;2.90;99.90;;;;;;5117375;27;20463;-74
2020/12/26 04:10:35;;;;;;;37.93;31.03;;;2.90;99.90;;;;;;5130251;27;20452;-74
2020/12/26 04:13:01;;;;;;;37.80;30.70;;;3.00;99.90;;;;;;5127611;27;20495;-75
2020/12/26 04:15:28;;;;;;;37.80;31.67;;;2.90;99.90;;;;;;5129173;27;20462;-74
2020/12/26 04:17:54;;;;;;;32.27;27.67;;;2.90;99.90;;;;;;5124200;27;20842;-74
2020/12/26 04:20:20;;;;;;;38.10;30.53;;;2.90;99.90;;;;;;5126154;27;20462;-74
2020/12/26 04:22:46;;;;;;;37.90;32.73;;;2.90;99.90;;;;;;5120820;27;20461;-74
2020/12/26 04:25:14;;;;;;;39.53;30.47;;;2.90;99.90;;;;;;5128725;27;20487;-74
2020/12/26 04:27:40;;;;;;;39.37;35.10;;;2.90;99.90;;;;;;5127460;27;20455;-74
2020/12/26 04:30:06;;;;;;;46.93;34.07;;;2.90;99.90;;;;;;5124739;27;20512;-74
2020/12/26 04:32:33;;;;;;;48.47;34.03;;;2.90;99.90;;;;;;5120686;27;20846;-74
2020/12/26 04:35:00;;;;;;;43.33;33.57;;;2.90;99.90;;;;;;5121246;27;20843;-74
2020/12/26 04:37:26;;;;;;;40.77;33.70;;;2.90;99.90;;;;;;5120000;27;20484;-75
2020/12/26 04:39:55;;;;;;;40.63;32.50;;;3.00;99.90;;;;;;5123235;27;20487;-75
2020/12/26 04:42:22;;;;;;;44.27;36.00;;;2.90;99.90;;;;;;5120996;27;21053;-75
2020/12/26 04:44:50;;;;;;;45.97;35.43;;;2.90;99.90;;;;;;5123812;27;20466;-74
2020/12/26 04:47:25;;;;;;;46.83;35.37;;;2.90;99.90;;;;;;5125694;27;20457;-74
2020/12/26 04:49:57;;;;;;;40.33;33.60;;;2.90;99.90;;;;;;5123858;27;20463;-75
2020/12/26 04:52:28;;;;;;;53.40;34.00;;;2.80;99.90;;;;;;5126330;27;20811;-74
2020/12/26 04:54:55;;;;;;;43.30;35.00;;;2.70;99.90;;;;;;5126838;27;20484;-74
2020/12/26 04:57:24;;;;;;;58.20;33.73;;;2.60;99.90;;;;;;5124115;27;20456;-75
2020/12/26 04:59:50;;;;;;;39.17;32.77;;;2.70;99.90;;;;;;5118365;27;20456;-73
2020/12/26 05:02:19;;;;;;;42.50;34.20;;;2.80;99.90;;;;;;5117444;27;21049;-75
2020/12/26 05:04:45;;;;;;;45.83;33.23;;;2.90;99.90;;;;;;5118717;27;20465;-74
2020/12/26 05:07:12;;;;;;;42.97;34.50;;;2.90;99.90;;;;;;5124432;27;20456;-74
2020/12/26 05:09:38;;;;;;;39.27;33.33;;;3.00;99.90;;;;;;5131321;27;20572;-74
2020/12/26 05:12:05;;;;;;;45.40;32.20;;;3.00;99.90;;;;;;5126261;27;20515;-74
2020/12/26 05:14:32;;;;;;;42.73;32.57;;;3.00;99.90;;;;;;5120554;27;20475;-74
2020/12/26 05:17:00;;;;;;;46.27;35.30;;;3.00;99.90;;;;;;5125143;27;20471;-74
2020/12/26 05:19:27;;;;;;;40.57;32.83;;;2.90;99.90;;;;;;5128257;27;20462;-74
2020/12/26 05:21:55;;;;;;;39.60;32.17;;;2.70;99.90;;;;;;5122652;27;20476;-74
2020/12/26 05:24:21;;;;;;;49.17;32.00;;;2.70;99.90;;;;;;5122381;27;20456;-75
2020/12/26 05:26:49;;;;;;;39.43;29.53;;;2.70;99.90;;;;;;5122433;27;20515;-75
2020/12/26 05:29:17;;;;;;;39.83;30.77;;;2.60;99.90;;;;;;5125481;27;20463;-74
2020/12/26 05:31:53;;;;;;;42.13;32.90;;;2.60;99.90;;;;;;5116219;27;20524;-75
2020/12/26 05:34:19;;;;;;;41.47;33.30;;;2.60;99.90;;;;;;5119559;27;20777;-74
2020/12/26 05:36:47;;;;;;;45.63;34.07;;;2.50;99.90;;;;;;5122826;27;20839;-75
2020/12/26 05:39:14;;;;;;;37.73;33.60;;;2.50;99.90;;;;;;5120945;27;20483;-78
2020/12/26 05:41:42;;;;;;;38.83;30.97;;;2.40;99.90;;;;;;5124154;27;20519;-73
2020/12/26 05:44:10;;;;;;;42.47;33.67;;;2.30;99.90;;;;;;5120397;27;20457;-72
2020/12/26 05:46:36;;;;;;;36.53;31.50;;;2.20;99.90;;;;;;5130066;27;20472;-74
2020/12/26 05:49:24;;;;;;;42.10;33.57;;;2.20;99.90;;;;;;5124792;27;20467;-74
2020/12/26 05:51:53;;;;;;;40.73;31.90;;;2.20;99.90;;;;;;5122636;27;20487;-76
2020/12/26 05:54:20;;;;;;;41.40;32.03;;;2.20;99.90;;;;;;5115973;27;20496;-75
2020/12/26 05:56:46;;;;;;;37.50;32.57;;;2.20;99.90;;;;;;5124465;27;20958;-77
2020/12/26 05:59:25;;;;;;;36.20;29.93;;;2.10;99.90;;;;;;5118649;27;20457;-76
2020/12/26 06:01:55;;;;;;;45.43;30.53;;;2.10;99.90;;;;;;5118720;27;20460;-78
2020/12/26 06:04:22;;;;;;;34.13;30.50;;;2.10;99.90;;;;;;5126817;27;20946;-76
2020/12/26 06:06:52;;;;;;;39.17;28.60;;;2.10;99.90;;;;;;5123924;27;20468;-75
2020/12/26 06:09:21;;;;;;;36.77;29.33;;;2.10;99.90;;;;;;5121992;27;20488;-78
2020/12/26 06:11:48;;;;;;;39.23;29.00;;;2.10;99.90;;;;;;5120850;27;20472;-75
2020/12/26 06:14:19;;;;;;;31.43;27.80;;;1.90;99.90;;;;;;5125435;27;20820;-79
2020/12/26 06:16:50;;;;;;;35.43;29.30;;;1.90;99.90;;;;;;5126536;27;20464;-75
2020/12/26 06:19:23;;;;;;;30.60;27.40;;;1.90;99.90;;;;;;5126362;27;20460;-77
2020/12/26 06:21:52;;;;;;;31.73;26.97;;;1.90;99.90;;;;;;5118994;27;20492;-76
2020/12/26 06:24:19;;;;;;;31.13;27.87;;;1.90;99.90;;;;;;5122561;27;20491;-73
2020/12/26 06:26:47;;;;;;;36.90;26.27;;;1.90;99.90;;;;;;5117956;27;20459;-77
2020/12/26 06:29:19;;;;;;;34.87;26.43;;;1.90;99.90;;;;;;5120468;27;20649;-75
2020/12/26 06:31:48;;;;;;;28.77;25.63;;;1.90;99.90;;;;;;5126920;27;20490;-76
2020/12/26 06:34:19;;;;;;;27.90;24.77;;;1.90;99.90;;;;;;5122935;27;20456;-74
2020/12/26 06:36:45;;;;;;;29.57;26.37;;;1.90;99.90;;;;;;5117453;27;20483;-76
2020/12/26 06:39:28;;;;;;;30.53;27.20;;;1.90;99.90;;;;;;5119123;27;20498;-75
2020/12/26 06:42:14;;;;;;;35.80;27.13;;;1.90;99.90;;;;;;5118160;27;20982;-77
2020/12/26 06:44:42;;;;;;;29.37;26.20;;;2.00;99.90;;;;;;5118587;27;20563;-75
2020/12/26 06:47:08;;;;;;;30.93;27.03;;;1.90;99.90;;;;;;5132161;27;20497;-77
2020/12/26 06:49:35;;;;;;;29.57;26.20;;;1.90;99.90;;;;;;5121778;27;20471;-74
2020/12/26 06:52:01;;;;;;;29.03;25.30;;;1.90;99.90;;;;;;5120806;27;20483;-73
2020/12/26 06:54:44;;;;;;;34.60;25.53;;;1.90;99.90;;;;;;5120060;27;20613;-77
2020/12/26 06:57:38;;;;;;;35.73;24.23;;;1.90;99.90;;;;;;5121074;27;20464;-76
2020/12/26 07:00:26;;;;;;;29.30;26.10;;;1.90;99.90;;;;;;5126027;27;20885;-73
2020/12/26 07:03:15;;;;;;;28.60;25.60;;;1.80;99.90;;;;;;5121567;27;21013;-75
2020/12/26 07:05:41;;;;;;;27.30;24.57;;;1.70;99.90;;;;;;5128124;27;20455;-75
2020/12/26 07:08:20;;;;;;;27.50;24.50;;;1.70;99.90;;;;;;5126001;27;20607;-75
2020/12/26 07:10:47;;;;;;;26.83;23.97;;;1.70;99.90;;;;;;5121394;28;20459;-77
2020/12/26 07:13:41;;;;;;;34.03;27.23;;;1.70;99.90;;;;;;5120347;28;20549;-76
2020/12/26 07:16:43;;;;;;;23.90;21.60;;;1.70;99.90;;;;;;5113246;27;20479;-77
2020/12/26 07:19:39;;;;;;;38.33;27.60;;;1.70;99.90;;;;;;5117659;28;20464;-76
2020/12/26 07:22:11;;;;;;;28.10;24.17;;;1.70;99.90;;;;;;5116881;28;20476;-74
2020/12/26 07:24:40;;;;;;;26.53;23.57;;;1.70;99.90;;;;;;5118819;28;20636;-76
2020/12/26 07:27:16;;;;;;;27.87;25.07;;;1.60;99.90;;;;;;5115365;28;20457;-76
2020/12/26 07:29:52;;;;;;;28.20;25.00;;;1.60;99.90;;;;;;5124743;28;20501;-78
2020/12/26 07:32:40;;;;;;;28.33;25.40;;;1.60;99.90;;;;;;5126454;27;20500;-77
2020/12/26 07:35:09;;;;;;;27.37;24.20;;;1.60;99.90;;;;;;5125187;28;20946;-78
2020/12/26 07:37:35;;;;;;;31.70;26.13;;;1.60;99.90;;;;;;5117741;28;20837;-78
2020/12/26 07:40:01;;;;;;;28.73;25.87;;;1.70;99.90;;;;;;5122491;28;20552;-74
2020/12/26 07:42:29;;;;;;;27.40;24.60;;;1.60;99.90;;;;;;5123222;28;20468;-76
2020/12/26 07:44:56;;;;;;;30.83;27.40;;;1.60;99.90;;;;;;5122089;28;20478;-77
2020/12/26 07:47:23;;;;;;;29.70;25.33;;;1.70;99.90;;;;;;5126983;27;20510;-75
2020/12/26 07:49:57;;;;;;;27.77;25.17;;;1.70;99.90;;;;;;5119645;28;20489;-76
2020/12/26 07:52:23;;;;;;;28.70;25.67;;;1.70;99.90;;;;;;5124339;28;20514;-74
2020/12/26 07:54:58;;;;;;;36.23;26.97;;;1.70;99.90;;;;;;5124206;28;21051;-77
2020/12/26 07:57:24;;;;;;;25.87;23.10;;;1.70;99.90;;;;;;5123614;28;20462;-75
2020/12/26 07:59:52;;;;;;;29.63;25.43;;;1.70;99.90;;;;;;5121383;28;20460;-75
2020/12/26 08:02:18;;;;;;;34.10;27.17;;;1.70;99.90;;;;;;5126592;27;20494;-74
2020/12/26 08:04:45;;;;;;;39.63;27.30;;;1.70;99.90;;;;;;5125938;27;20654;-77
2020/12/26 08:07:12;;;;;;;31.80;27.03;;;1.80;99.90;;;;;;5127011;27;20479;-74
2020/12/26 08:09:38;;;;;;;34.93;28.63;;;1.80;99.90;;;;;;5126428;27;20482;-76
2020/12/26 08:12:06;;;;;;;29.30;26.20;;;1.80;99.90;;;;;;5117381;27;20490;-77
2020/12/26 08:14:33;;;;;;;30.73;27.23;;;1.70;99.90;;;;;;5115307;27;20453;-78
2020/12/26 08:17:01;;;;;;;32.60;28.50;;;1.70;99.90;;;;;;5122108;27;20456;-74
2020/12/26 08:19:29;;;;;;;70.80;45.43;;;1.70;99.90;;;;;;5119016;27;20464;-78
2020/12/26 08:21:57;;;;;;;38.80;32.27;;;1.70;99.90;;;;;;5122063;27;20525;-76
2020/12/26 08:24:24;;;;;;;35.37;28.83;;;1.80;99.90;;;;;;5118927;27;20456;-74
2020/12/26 08:26:53;;;;;;;39.20;31.10;;;1.80;99.90;;;;;;5121770;27;20488;-76
2020/12/26 08:29:25;;;;;;;35.60;29.67;;;1.80;99.90;;;;;;5121241;27;20464;-76
2020/12/26 08:31:55;;;;;;;32.47;28.97;;;1.90;99.90;;;;;;5123098;27;20490;-78
2020/12/26 08:34:29;;;;;;;37.50;28.90;;;1.90;99.90;;;;;;5117964;27;20551;-75
2020/12/26 08:36:58;;;;;;;30.37;25.10;;;1.90;99.90;;;;;;5119118;27;20575;-78
2020/12/26 08:39:26;;;;;;;42.20;26.10;;;1.80;99.90;;;;;;5119346;27;20464;-77
2020/12/26 08:41:55;;;;;;;41.77;29.90;;;1.90;99.90;;;;;;5124577;27;20813;-78
2020/12/26 08:44:21;;;;;;;32.80;27.87;;;2.00;99.90;;;;;;5115889;27;20468;-75
2020/12/26 08:46:48;;;;;;;27.63;22.93;;;2.00;99.90;;;;;;5120844;27;20452;-75
2020/12/26 08:49:15;;;;;;;31.77;25.17;;;2.10;99.90;;;;;;5121501;27;20453;-76
2020/12/26 08:51:45;;;;;;;30.07;25.93;;;2.20;99.90;;;;;;5118808;27;20465;-76
2020/12/26 08:54:19;;;;;;;27.83;24.80;;;2.30;99.90;;;;;;5120286;27;20929;-78
2020/12/26 08:56:46;;;;;;;29.50;22.97;;;2.40;99.90;;;;;;5120004;27;20467;-76
2020/12/26 08:59:13;;;;;;;30.10;25.00;;;2.60;99.90;;;;;;5125894;27;20528;-75
2020/12/26 09:01:41;;;;;;;30.27;23.70;;;2.80;99.90;;;;;;5135502;27;20460;-78
2020/12/26 09:04:15;;;;;;;27.40;22.87;;;2.90;99.90;;;;;;5130144;27;20508;-76
2020/12/26 09:06:44;;;;;;;24.33;21.73;;;3.00;99.90;;;;;;5122185;27;20464;-76
2020/12/26 09:09:14;;;;;;;25.07;22.33;;;3.00;99.90;;;;;;5120973;27;20460;-76
2020/12/26 09:11:42;;;;;;;32.43;22.23;;;3.10;99.90;;;;;;5119505;27;20461;-76
2020/12/26 09:14:20;;;;;;;22.80;20.10;;;3.10;99.90;;;;;;5122022;27;20465;-73
2020/12/26 09:16:49;;;;;;;23.47;21.07;;;3.10;99.90;;;;;;5114202;27;20495;-75
2020/12/26 09:19:15;;;;;;;24.17;20.10;;;3.10;99.90;;;;;;5121555;27;20549;-76
2020/12/26 09:21:42;;;;;;;22.50;20.10;;;3.10;99.90;;;;;;5124248;27;20885;-75
2020/12/26 09:24:18;;;;;;;24.37;20.10;;;3.30;99.90;;;;;;5122291;27;20923;-76
2020/12/26 09:26:44;;;;;;;24.30;20.37;;;3.30;99.90;;;;;;5119929;27;20487;-73
2020/12/26 09:29:21;;;;;;;28.27;18.93;;;3.30;99.90;;;;;;5120012;27;21048;-74
2020/12/26 09:31:48;;;;;;;20.77;18.70;;;3.40;99.90;;;;;;5126356;27;20452;-76
2020/12/26 09:34:16;;;;;;;22.53;20.00;;;3.50;99.90;;;;;;5122248;27;20453;-75
2020/12/26 09:36:44;;;;;;;24.63;18.43;;;3.50;99.90;;;;;;5119186;27;20503;-76
2020/12/26 09:39:11;;;;;;;20.63;18.73;;;3.50;99.90;;;;;;5118814;27;20457;-77
2020/12/26 09:41:44;;;;;;;24.50;17.90;;;3.60;99.90;;;;;;5123004;27;20537;-74
2020/12/26 09:44:11;;;;;;;19.90;17.63;;;3.60;99.90;;;;;;5120890;27;20494;-76
2020/12/26 09:46:39;;;;;;;20.13;18.27;;;3.60;99.90;;;;;;5127226;27;20452;-77
2020/12/26 09:49:05;;;;;;;24.00;17.97;;;3.70;99.90;;;;;;5127705;27;20464;-76
2020/12/26 09:51:33;;;;;;;18.30;16.40;;;3.80;99.90;;;;;;5118806;27;20826;-76
2020/12/26 09:54:01;;;;;;;18.63;16.80;;;3.90;99.90;;;;;;5113367;27;20464;-76
2020/12/26 09:56:27;;;;;;;19.87;18.00;;;4.10;99.90;;;;;;5126307;27;20464;-75
2020/12/26 09:58:54;;;;;;;19.67;17.57;;;4.10;99.90;;;;;;5118824;27;20972;-77
2020/12/26 10:01:21;;;;;;;26.03;19.77;;;4.00;99.90;;;;;;5135930;27;20448;-76
2020/12/26 10:03:49;;;;;;;18.63;16.87;;;3.90;99.90;;;;;;5123681;27;20792;-74
2020/12/26 10:06:17;;;;;;;19.30;17.43;;;3.90;99.90;;;;;;5118001;27;20883;-77
2020/12/26 10:08:44;;;;;;;26.20;23.40;;;3.90;99.90;;;;;;5118872;27;20457;-76
2020/12/26 10:11:15;;;;;;;22.80;18.33;;;3.90;99.90;;;;;;5127201;27;20525;-77
2020/12/26 10:13:42;;;;;;;19.23;17.50;;;3.90;99.90;;;;;;5119747;27;20488;-74
2020/12/26 10:16:09;;;;;;;19.03;17.13;;;3.90;99.90;;;;;;5116775;27;20821;-73
2020/12/26 10:18:38;;;;;;;19.13;17.20;;;3.90;99.90;;;;;;5111581;27;20521;-74
2020/12/26 10:21:05;;;;;;;17.80;16.33;;;3.80;99.90;;;;;;5114303;27;20457;-74
2020/12/26 10:23:32;;;;;;;18.17;16.33;;;3.90;99.90;;;;;;5118650;27;20508;-74
2020/12/26 10:26:03;;;;;;;18.10;16.30;;;3.90;99.90;;;;;;5116179;27;20467;-75
2020/12/26 10:28:31;;;;;;;17.63;15.90;;;3.90;99.90;;;;;;5116537;27;20459;-75
2020/12/26 10:30:58;;;;;;;17.30;15.70;;;4.00;99.90;;;;;;5120528;27;20493;-74
2020/12/26 10:33:24;;;;;;;18.87;17.37;;;4.00;99.90;;;;;;5117147;27;20554;-77
2020/12/26 10:35:51;;;;;;;17.80;16.47;;;4.10;99.90;;;;;;5122521;27;20529;-74
2020/12/26 10:38:17;;;;;;;18.63;17.10;;;4.30;99.90;;;;;;5120391;27;20504;-75
2020/12/26 10:40:43;;;;;;;17.30;15.70;;;4.30;99.90;;;;;;5120242;27;20492;-75
2020/12/26 10:43:10;;;;;;;16.43;15.00;;;4.30;99.90;;;;;;5115614;27;20455;-74
2020/12/26 10:45:37;;;;;;;16.90;15.40;;;4.30;99.90;;;;;;5121623;27;20456;-76
2020/12/26 10:48:04;;;;;;;19.93;14.33;;;4.30;99.90;;;;;;5118962;27;20465;-75
2020/12/26 10:50:30;;;;;;;16.27;15.00;;;4.20;99.90;;;;;;5115747;27;20807;-75
2020/12/26 10:52:57;;;;;;;17.07;15.73;;;4.30;99.90;;;;;;5120362;27;20476;-75
2020/12/26 10:55:23;;;;;;;16.17;14.87;;;4.40;99.90;;;;;;5115772;27;20465;-76
2020/12/26 10:57:49;;;;;;;18.47;16.97;;;4.40;99.90;;;;;;5119863;27;20497;-74
2020/12/26 11:00:16;;;;;;;16.63;15.33;;;4.40;99.90;;;;;;5110840;27;20468;-77
2020/12/26 11:02:43;;;;;;;17.20;15.63;;;4.40;99.90;;;;;;5122912;27;20627;-73
2020/12/26 11:05:09;;;;;;;14.90;13.73;;;4.50;99.90;;;;;;5119234;27;20452;-76
2020/12/26 11:07:36;;;;;;;16.20;15.10;;;4.50;99.90;;;;;;5115080;27;20456;-74
2020/12/26 11:10:03;;;;;;;15.83;14.20;;;4.60;99.90;;;;;;5116513;28;20465;-76
2020/12/26 11:12:29;;;;;;;15.63;14.33;;;4.70;99.90;;;;;;5112503;28;20583;-76
2020/12/26 11:14:55;;;;;;;14.20;13.00;;;4.70;99.90;;;;;;5115320;28;20456;-77
2020/12/26 11:17:22;;;;;;;15.53;14.17;;;4.80;99.90;;;;;;5112506;27;20518;-76
2020/12/26 11:19:49;;;;;;;14.23;13.00;;;5.00;99.90;;;;;;5120769;28;20465;-74
2020/12/26 11:22:15;;;;;;;14.37;12.93;;;5.10;99.90;;;;;;5111363;28;20472;-74
2020/12/26 11:24:41;;;;;;;13.80;13.00;;;5.00;99.90;;;;;;5116675;28;20471;-75
2020/12/26 11:27:10;;;;;;;14.70;13.60;;;4.80;99.90;;;;;;5117304;28;20459;-75
2020/12/26 11:29:36;;;;;;;14.17;13.07;;;4.90;99.90;;;;;;5115103;28;20460;-74
2020/12/26 11:32:03;;;;;;;14.30;13.37;;;4.90;99.90;;;;;;5118797;27;20511;-77
2020/12/26 11:34:30;;;;;;;14.97;13.77;;;5.00;99.90;;;;;;5118662;28;20468;-73
2020/12/26 11:36:57;;;;;;;15.17;14.10;;;5.00;99.90;;;;;;5117159;28;20487;-75
2020/12/26 11:39:24;;;;;;;14.93;13.70;;;5.10;99.90;;;;;;5111784;28;20857;-74
2020/12/26 11:41:51;;;;;;;13.90;12.80;;;5.30;99.90;;;;;;5121511;27;20488;-76
2020/12/26 11:44:18;;;;;;;16.57;15.10;;;5.60;99.90;;;;;;5118650;27;20465;-73
2020/12/26 11:46:44;;;;;;;14.87;13.33;;;5.80;99.90;;;;;;5121885;27;20453;-75
2020/12/26 11:49:11;;;;;;;14.07;12.90;;;5.90;99.90;;;;;;5118970;27;20871;-76
2020/12/26 11:51:37;;;;;;;14.03;12.90;;;5.90;99.90;;;;;;5119561;27;20486;-75
2020/12/26 11:54:04;;;;;;;13.10;12.30;;;6.10;99.90;;;;;;5119526;27;20492;-76
2020/12/26 11:56:30;;;;;;;14.60;13.60;;;6.00;99.90;;;;;;5116285;27;20959;-76
2020/12/26 11:58:57;;;;;;;14.27;13.27;;;6.10;99.90;;;;;;5115381;27;20491;-76
2020/12/26 12:01:27;;;;;;;15.10;13.90;;;6.10;99.90;;;;;;5119675;27;20528;-74
2020/12/26 12:03:54;;;;;;;15.80;14.40;;;6.30;99.90;;;;;;5114630;27;20455;-75
2020/12/26 12:06:21;;;;;;;13.80;12.80;;;6.80;99.90;;;;;;5117578;27;20990;-75
2020/12/26 12:08:47;;;;;;;14.03;12.83;;;7.30;99.90;;;;;;5120386;27;20866;-76
2020/12/26 12:11:17;;;;;;;14.10;13.10;;;7.70;99.90;;;;;;5117172;27;20465;-77
2020/12/26 12:13:43;;;;;;;13.00;11.97;;;7.70;99.90;;;;;;5119255;27;20499;-75
2020/12/26 12:16:13;;;;;;;13.33;12.40;;;8.00;99.90;;;;;;5119710;27;20472;-76
2020/12/26 12:18:39;;;;;;;13.13;12.37;;;7.50;99.90;;;;;;5116808;27;20463;-74
2020/12/26 12:21:05;;;;;;;14.47;13.47;;;7.10;99.90;;;;;;5119848;27;21249;-76
2020/12/26 12:23:32;;;;;;;15.03;13.73;;;6.70;99.90;;;;;;5120203;27;20489;-76
2020/12/26 12:25:58;;;;;;;14.60;13.10;;;6.70;99.90;;;;;;5116277;27;20462;-75
2020/12/26 12:28:26;;;;;;;13.43;12.60;;;6.60;99.90;;;;;;5118347;27;20460;-74
2020/12/26 12:30:52;;;;;;;13.47;12.57;;;6.30;99.90;;;;;;5118719;27;20458;-75
2020/12/26 12:33:18;;;;;;;13.20;12.20;;;6.30;99.90;;;;;;5117988;27;20514;-74
2020/12/26 12:35:45;;;;;;;14.07;12.83;;;6.30;99.90;;;;;;5122650;27;20456;-75
2020/12/26 12:38:11;;;;;;;13.40;12.60;;;6.30;99.90;;;;;;5120538;27;20526;-75
2020/12/26 12:40:38;;;;;;;14.00;12.90;;;6.20;99.90;;;;;;5119484;27;20864;-74